This is the latest recevied weather packets stored in our database for station/object SP1BMW-13. If no packets are shown the sender has not sent any weather packets the latest 10 day(s).
| Time | Temp. | Humidity | Pressure | Rain* | Wind** | Luminosity | Snow |
|---|---|---|---|---|---|---|---|
| 1787402461 | 21.11° C | 52% | 1010.3 hPa | 0 mm | 1.79 m/s, 160° | 766 W/m² | - |
| 1787402401 | 20.56° C | 52% | 1010.2 hPa | 0 mm | 1.79 m/s, 220° | 773 W/m² | - |
| 1787402342 | 20.56° C | 53% | 1010.3 hPa | 0 mm | 1.79 m/s, 251° | 768 W/m² | - |
| 1787402281 | 20.56° C | 52% | 1010.2 hPa | 0 mm | 2.24 m/s, 239° | 759 W/m² | - |
| 1787402221 | 20.56° C | 52% | 1010 hPa | 0 mm | 3.13 m/s, 14° | 757 W/m² | - |
| 1787402164 | 20.56° C | 52% | 1010.1 hPa | 0 mm | 2.68 m/s, 222° | 692 W/m² | - |
| 1787402101 | 20.56° C | 51% | 1010.3 hPa | 0 mm | 2.68 m/s, 269° | 240 W/m² | - |
| 1787402043 | 20.56° C | 52% | 1010.2 hPa | 0 mm | 4.02 m/s, 206° | 241 W/m² | - |
| 1787401982 | 20.56° C | 53% | 1009.9 hPa | 0 mm | 4.02 m/s, 194° | 772 W/m² | - |
| 1787401921 | 20.56° C | 53% | 1009.9 hPa | 0 mm | 2.24 m/s, 133° | 756 W/m² | - |
| 1787401862 | 20.56° C | 55% | 1010.1 hPa | 0 mm | 2.24 m/s, 287° | 753 W/m² | - |
| 1787401802 | 20° C | 58% | 1010 hPa | 0 mm | 1.79 m/s, 306° | 754 W/m² | - |
| 1787401741 | 20° C | 58% | 1010.1 hPa | 0 mm | 0 m/s | 753 W/m² | - |
| 1787401682 | 20° C | 57% | 1010.2 hPa | 0 mm | 0.89 m/s, 269° | 742 W/m² | - |
| 1787401622 | 20° C | 56% | 1010.2 hPa | 0 mm | 2.24 m/s, 261° | 727 W/m² | - |
| 1787401562 | 20° C | 57% | 1010.3 hPa | 0 mm | 2.24 m/s, 265° | 728 W/m² | - |
| 1787401502 | 20° C | 58% | 1010.2 hPa | 0 mm | 1.79 m/s, 2° | 729 W/m² | - |
| 1787401442 | 20° C | 56% | 1010.4 hPa | 0 mm | 1.79 m/s, 230° | 212 W/m² | - |
| 1787401382 | 20° C | 57% | 1010.3 hPa | 0 mm | 2.68 m/s, 233° | 326 W/m² | - |
| 1787401321 | 20° C | 56% | 1010.3 hPa | 0 mm | 2.24 m/s, 298° | 249 W/m² | - |
| 1787401262 | 20° C | 56% | 1010.2 hPa | 0 mm | 1.79 m/s, 295° | 194 W/m² | - |
| 1787401201 | 20° C | 55% | 1010.1 hPa | 0 mm | 2.24 m/s, 253° | 202 W/m² | - |
| 1787401141 | 20° C | 55% | 1010.2 hPa | 0 mm | 0.89 m/s, 251° | 264 W/m² | - |
| 1787401081 | 20° C | 56% | 1010.3 hPa | 0 mm | 1.34 m/s, 350° | 523 W/m² | - |
| 1787401021 | 20° C | 55% | 1010.1 hPa | 0 mm | 1.79 m/s, 228° | 783 W/m² | - |
* Rain latest hour (hover to see other rain measurements)
** Current wind speed in m/s (hover to see current wind gust speed)